createdAt,value
2019-03-18T00:00:17.985Z,11.71
2019-03-18T00:02:51.921Z,11.56
2019-03-18T00:05:25.531Z,11.43
2019-03-18T00:07:59.478Z,11.88
2019-03-18T00:10:35.552Z,11.94
2019-03-18T00:13:09.190Z,12.05
2019-03-18T00:15:42.804Z,11.48
2019-03-18T00:18:16.637Z,11.34
2019-03-18T00:20:50.327Z,10.92
2019-03-18T00:23:24.054Z,11.20
2019-03-18T00:25:57.697Z,11.59
2019-03-18T00:28:31.608Z,11.29
2019-03-18T00:31:05.291Z,11.47
2019-03-18T00:33:39.120Z,11.44
2019-03-18T00:36:12.907Z,11.61
2019-03-18T00:38:46.726Z,11.18
2019-03-18T00:41:20.838Z,11.66
2019-03-18T00:43:54.446Z,11.50
2019-03-18T00:46:28.031Z,11.58
2019-03-18T00:49:01.594Z,11.69
2019-03-18T00:51:35.331Z,11.62
2019-03-18T00:54:10.779Z,11.54
2019-03-18T00:56:44.264Z,11.63
2019-03-18T00:59:17.735Z,11.78
2019-03-18T01:01:51.264Z,11.87
2019-03-18T01:04:24.736Z,11.89
2019-03-18T01:06:58.488Z,11.40
2019-03-18T01:09:31.966Z,11.76
2019-03-18T01:12:05.521Z,11.08
2019-03-18T01:14:38.939Z,11.40
2019-03-18T01:17:12.550Z,10.90
2019-03-18T01:19:46.157Z,10.65
2019-03-18T01:22:19.731Z,11.31
2019-03-18T01:24:53.347Z,11.20
2019-03-18T01:27:26.916Z,10.77
2019-03-18T01:30:00.401Z,10.73
2019-03-18T01:32:33.874Z,10.96
2019-03-18T01:35:08.901Z,10.83
2019-03-18T01:37:42.404Z,10.84
2019-03-18T01:40:15.909Z,10.27
2019-03-18T01:42:49.490Z,10.38
2019-03-18T01:45:23.151Z,10.12
2019-03-18T01:47:56.648Z,10.24
2019-03-18T01:50:30.388Z,10.05
2019-03-18T01:53:03.960Z,9.96
2019-03-18T01:55:37.667Z,10.09
2019-03-18T01:58:11.235Z,10.33
2019-03-18T02:00:44.816Z,10.32
2019-03-18T02:03:18.394Z,9.88
2019-03-18T02:05:52.042Z,9.79
2019-03-18T02:08:25.514Z,9.97
2019-03-18T02:10:59.290Z,9.50
2019-03-18T02:13:32.994Z,9.23
2019-03-18T02:16:06.664Z,9.67
2019-03-18T02:18:40.202Z,9.95
2019-03-18T02:21:13.840Z,9.83
2019-03-18T02:23:47.242Z,9.77
2019-03-18T02:26:20.708Z,9.79
2019-03-18T02:28:54.164Z,9.49
2019-03-18T02:31:27.893Z,9.74
2019-03-18T02:34:01.338Z,9.75
2019-03-18T02:36:35.068Z,9.47
2019-03-18T02:39:08.640Z,9.68
2019-03-18T02:41:42.167Z,9.95
2019-03-18T02:44:15.806Z,9.66
2019-03-18T02:46:49.444Z,9.92
2019-03-18T02:49:23.072Z,9.89
2019-03-18T02:51:56.622Z,9.76
2019-03-18T02:54:30.226Z,9.69
2019-03-18T02:57:05.429Z,9.65
2019-03-18T02:59:39.084Z,9.63
2019-03-18T03:02:12.662Z,9.46
2019-03-18T03:04:46.803Z,8.94
2019-03-18T03:07:20.274Z,9.33
2019-03-18T03:09:54.078Z,9.29
2019-03-18T03:12:27.676Z,9.20
2019-03-18T03:15:01.212Z,9.28
2019-03-18T03:17:34.920Z,9.46
2019-03-18T03:20:11.936Z,9.55
2019-03-18T03:22:45.365Z,9.19
2019-03-18T03:25:18.899Z,9.12
2019-03-18T03:27:52.526Z,9.18
2019-03-18T03:30:26.329Z,9.08
2019-03-18T03:32:59.932Z,9.18
2019-03-18T03:35:33.576Z,9.03
2019-03-18T03:38:07.060Z,9.06
2019-03-18T03:40:40.792Z,9.01
2019-03-18T03:43:14.269Z,9.03
2019-03-18T03:45:47.884Z,9.05
2019-03-18T03:48:21.465Z,9.10
2019-03-18T03:50:55.147Z,9.04
2019-03-18T03:53:30.847Z,9.05
2019-03-18T03:56:04.077Z,9.09
2019-03-18T03:58:37.545Z,9.12
2019-03-18T04:01:11.128Z,8.98
2019-03-18T04:03:44.708Z,9.12
2019-03-18T04:06:18.223Z,9.03
2019-03-18T04:08:51.841Z,9.05
2019-03-18T04:11:25.346Z,8.61
2019-03-18T04:13:58.972Z,8.81
2019-03-18T04:16:32.602Z,8.90
2019-03-18T04:19:06.139Z,9.13
2019-03-18T04:21:39.699Z,8.87
2019-03-18T04:24:13.407Z,8.84
2019-03-18T04:26:47.011Z,8.95
2019-03-18T04:29:20.645Z,8.79
2019-03-18T04:31:54.235Z,8.80
2019-03-18T04:34:27.786Z,8.81
2019-03-18T04:37:01.271Z,8.87
2019-03-18T04:39:34.915Z,8.88
2019-03-18T04:42:08.372Z,8.96
2019-03-18T04:44:41.993Z,8.82
2019-03-18T04:47:15.579Z,8.89
2019-03-18T04:49:49.244Z,8.83
2019-03-18T04:52:22.816Z,8.81
2019-03-18T04:54:56.455Z,8.62
2019-03-18T04:57:30.024Z,8.72
2019-03-18T05:00:06.945Z,8.90
2019-03-18T05:02:40.423Z,8.69
2019-03-18T05:05:14.066Z,8.70
2019-03-18T05:07:47.540Z,8.72
2019-03-18T05:10:21.075Z,8.56
2019-03-18T05:12:54.482Z,8.55
2019-03-18T05:15:28.173Z,8.54
2019-03-18T05:18:01.715Z,8.45
2019-03-18T05:20:35.363Z,8.47
2019-03-18T05:23:08.839Z,8.40
2019-03-18T05:25:42.555Z,8.55
2019-03-18T05:28:16.025Z,8.39
2019-03-18T05:30:49.647Z,8.31
2019-03-18T05:33:23.374Z,8.46
2019-03-18T05:35:56.889Z,8.34
2019-03-18T05:38:30.537Z,8.42
2019-03-18T05:41:04.199Z,8.50
2019-03-18T05:43:37.613Z,8.42
2019-03-18T05:46:11.338Z,8.35
2019-03-18T05:48:44.839Z,8.47
2019-03-18T05:51:18.472Z,8.39
2019-03-18T05:53:51.968Z,8.57
2019-03-18T05:56:25.589Z,8.39
2019-03-18T05:58:59.263Z,8.29
2019-03-18T06:01:33.182Z,8.32
2019-03-18T06:04:06.765Z,8.26
2019-03-18T06:06:40.265Z,8.38
2019-03-18T06:09:13.896Z,8.33
2019-03-18T06:11:47.413Z,8.27
2019-03-18T06:14:21.011Z,8.47
2019-03-18T06:16:54.475Z,8.23
2019-03-18T06:19:28.117Z,8.47
2019-03-18T06:22:01.709Z,8.30
2019-03-18T06:24:35.212Z,8.21
2019-03-18T06:27:08.864Z,8.26
2019-03-18T06:29:42.437Z,8.30
2019-03-18T06:32:16.041Z,8.48
2019-03-18T06:34:49.693Z,8.28
2019-03-18T06:37:23.395Z,8.42
2019-03-18T06:39:56.981Z,8.45
2019-03-18T06:42:30.614Z,8.33
2019-03-18T06:45:06.673Z,8.32
2019-03-18T06:47:40.312Z,8.42
2019-03-18T06:50:13.966Z,8.36
2019-03-18T06:52:47.597Z,8.21
2019-03-18T06:55:21.063Z,8.52
2019-03-18T06:57:54.824Z,8.55
2019-03-18T07:00:28.291Z,8.53
2019-03-18T07:03:01.931Z,8.76
2019-03-18T07:05:35.414Z,8.66
2019-03-18T07:08:08.976Z,8.38
2019-03-18T07:10:42.449Z,8.63
2019-03-18T07:13:16.091Z,8.68
2019-03-18T07:15:49.740Z,8.85
2019-03-18T07:18:23.223Z,8.86
2019-03-18T07:20:56.803Z,8.79
2019-03-18T07:23:30.345Z,8.98
2019-03-18T07:26:03.825Z,9.11
2019-03-18T07:28:37.359Z,8.95
2019-03-18T07:31:10.917Z,8.71
2019-03-18T07:33:44.443Z,8.74
2019-03-18T07:37:38.175Z,9.08
2019-03-18T07:40:12.931Z,9.19
2019-03-18T07:42:46.366Z,9.38
2019-03-18T07:45:19.934Z,9.92
2019-03-18T07:47:53.640Z,9.96
2019-03-18T07:50:27.139Z,11.82
2019-03-18T07:53:00.706Z,11.06
2019-03-18T07:55:34.298Z,10.65
2019-03-18T07:58:07.776Z,10.45
2019-03-18T08:00:41.269Z,10.43
2019-03-18T08:03:14.726Z,10.28
2019-03-18T08:05:48.364Z,9.97
2019-03-18T08:08:21.965Z,9.96
2019-03-18T08:10:55.548Z,10.08
2019-03-18T08:16:49.419Z,9.65
2019-03-18T08:19:23.136Z,7.85
2019-03-18T08:24:27.043Z,8.35
2019-03-18T08:27:00.517Z,7.89
2019-03-18T08:29:34.013Z,8.26
2019-03-18T08:32:07.488Z,8.07
2019-03-18T08:34:40.972Z,8.02
2019-03-18T08:37:16.603Z,8.29
2019-03-18T08:39:50.193Z,8.18
2019-03-18T08:42:23.931Z,8.10
2019-03-18T08:44:57.432Z,7.90
2019-03-18T08:47:30.831Z,8.25
2019-03-18T08:50:06.605Z,8.08
2019-03-18T08:52:40.071Z,8.13
2019-03-18T08:55:13.580Z,8.14
2019-03-18T08:57:47.114Z,8.04
2019-03-18T09:00:20.614Z,8.13
2019-03-18T09:02:56.365Z,7.96
2019-03-18T09:05:29.282Z,7.95
2019-03-18T09:08:02.821Z,7.97
2019-03-18T09:10:36.360Z,8.05
2019-03-18T09:13:09.860Z,8.14
2019-03-18T09:15:43.399Z,8.26
2019-03-18T09:18:16.925Z,8.05
2019-03-18T09:20:50.473Z,8.13
2019-03-18T09:23:24.010Z,8.12
2019-03-18T09:25:57.469Z,8.08
2019-03-18T09:28:31.010Z,7.89
2019-03-18T09:31:04.526Z,7.91
2019-03-18T09:33:38.133Z,8.05
2019-03-18T09:36:11.604Z,8.19
2019-03-18T09:38:45.184Z,8.46
2019-03-18T09:41:18.750Z,8.30
2019-03-18T09:43:52.292Z,8.08
2019-03-18T09:46:26.051Z,8.44
2019-03-18T09:48:59.640Z,8.05
2019-03-18T09:51:33.180Z,8.01
2019-03-18T09:54:06.704Z,7.93
2019-03-18T09:56:40.261Z,8.15
2019-03-18T09:59:13.787Z,8.38
2019-03-18T10:01:47.325Z,8.13
2019-03-18T10:04:20.828Z,8.24
2019-03-18T10:06:54.687Z,8.66
2019-03-18T10:09:28.146Z,8.13
2019-03-18T10:12:01.658Z,7.89
2019-03-18T10:14:35.208Z,8.12
2019-03-18T10:17:10.083Z,8.08
2019-03-18T10:19:43.809Z,8.57
2019-03-18T10:22:17.448Z,8.15
2019-03-18T10:24:50.912Z,8.13
2019-03-18T10:27:24.429Z,7.95
2019-03-18T10:29:57.940Z,8.44
2019-03-18T10:32:31.415Z,8.10
2019-03-18T10:35:05.730Z,8.22
2019-03-18T10:37:39.205Z,8.11
2019-03-18T10:40:13.464Z,8.05
2019-03-18T10:42:46.976Z,7.92
2019-03-18T10:45:20.598Z,8.14
2019-03-18T10:47:55.030Z,8.04
2019-03-18T10:50:28.759Z,8.26
2019-03-18T10:53:02.268Z,8.40
2019-03-18T10:55:35.830Z,8.71
2019-03-18T10:58:09.393Z,8.35
2019-03-18T11:00:42.884Z,8.31
2019-03-18T11:03:16.346Z,8.23
2019-03-18T11:05:50.012Z,8.47
2019-03-18T11:08:23.484Z,8.34
2019-03-18T11:10:57.102Z,8.12
2019-03-18T11:13:30.589Z,8.16
2019-03-18T11:16:04.116Z,8.29
2019-03-18T11:18:37.692Z,8.20
2019-03-18T11:21:11.242Z,8.33
2019-03-18T11:23:44.822Z,8.23
2019-03-18T11:26:18.362Z,8.19
2019-03-18T11:28:51.828Z,8.14
2019-03-18T11:31:25.549Z,8.14
2019-03-18T11:33:59.022Z,8.37
2019-03-18T11:36:32.521Z,8.43
2019-03-18T11:39:06.390Z,8.63
2019-03-18T11:41:40.088Z,8.80
2019-03-18T11:44:13.698Z,8.84
2019-03-18T11:46:47.158Z,8.72
2019-03-18T11:49:20.696Z,8.86
2019-03-18T11:51:54.156Z,8.88
2019-03-18T11:54:27.740Z,8.64
2019-03-18T11:57:01.320Z,8.55
2019-03-18T11:59:34.956Z,8.70
2019-03-18T12:02:08.948Z,8.88
2019-03-18T12:04:42.640Z,8.66
2019-03-18T12:07:16.180Z,9.03
2019-03-18T12:09:49.674Z,8.83
2019-03-18T12:12:23.215Z,8.66
2019-03-18T12:14:56.696Z,8.71
2019-03-18T12:17:30.229Z,8.59
2019-03-18T12:20:06.561Z,8.58
2019-03-18T12:22:40.100Z,8.79
2019-03-18T12:25:13.724Z,8.74
2019-03-18T12:27:48.777Z,8.92
2019-03-18T12:30:26.362Z,8.73
2019-03-18T12:32:59.938Z,8.81
2019-03-18T12:35:33.665Z,8.71
2019-03-18T12:38:07.164Z,8.87
2019-03-18T12:40:40.669Z,9.07
2019-03-18T12:43:14.399Z,8.96
2019-03-18T12:45:48.037Z,9.56
2019-03-18T12:48:21.514Z,10.18
2019-03-18T12:50:56.698Z,10.31
2019-03-18T12:53:30.622Z,10.45
2019-03-18T12:56:04.286Z,10.51
2019-03-18T12:58:37.760Z,10.66
2019-03-18T13:01:12.871Z,10.70
2019-03-18T13:03:46.541Z,10.83
2019-03-18T13:06:20.173Z,10.78
2019-03-18T13:08:53.753Z,10.84
2019-03-18T13:11:27.378Z,11.02
2019-03-18T13:14:01.301Z,10.71
2019-03-18T13:16:34.812Z,10.80
2019-03-18T13:19:08.375Z,10.84
2019-03-18T13:21:41.910Z,11.00
2019-03-18T13:24:15.322Z,10.87
2019-03-18T13:26:49.134Z,10.85
2019-03-18T13:29:22.725Z,11.03
2019-03-18T13:31:56.431Z,11.01
2019-03-18T13:34:29.905Z,11.14
2019-03-18T13:37:03.525Z,11.01
2019-03-18T13:39:37.068Z,11.28
2019-03-18T13:42:10.782Z,11.37
2019-03-18T13:44:44.355Z,11.35
2019-03-18T13:47:17.964Z,11.49
2019-03-18T13:49:51.555Z,11.46
2019-03-18T13:52:25.193Z,11.43
2019-03-18T13:54:58.780Z,11.47
2019-03-18T13:57:32.405Z,11.63
2019-03-18T14:00:15.303Z,11.57
2019-03-18T14:02:48.835Z,11.51
2019-03-18T14:05:23.011Z,11.61
2019-03-18T14:08:00.781Z,10.51
2019-03-18T14:10:31.733Z,10.24
2019-03-18T14:13:05.197Z,9.99
2019-03-18T14:15:38.718Z,9.72
2019-03-18T14:18:12.217Z,9.82
2019-03-18T14:20:45.683Z,10.27
2019-03-18T14:23:19.199Z,10.23
2019-03-18T14:25:52.675Z,10.31
2019-03-18T14:28:26.131Z,9.88
2019-03-18T14:30:59.613Z,9.96
2019-03-18T14:33:33.106Z,10.31
2019-03-18T14:36:06.747Z,10.04
2019-03-18T14:38:40.226Z,10.11
2019-03-18T14:41:13.744Z,10.17
2019-03-18T14:43:47.238Z,10.03
2019-03-18T14:46:20.758Z,9.92
2019-03-18T14:48:54.553Z,9.87
2019-03-18T14:51:28.046Z,9.89
2019-03-18T14:54:01.656Z,9.99
2019-03-18T14:56:35.161Z,10.02
2019-03-18T14:59:08.676Z,11.85
2019-03-18T15:01:42.087Z,10.54
2019-03-18T15:04:15.516Z,10.32
2019-03-18T15:06:48.999Z,10.11
2019-03-18T15:09:22.518Z,10.16
2019-03-18T15:11:56.538Z,10.14
2019-03-18T15:14:30.015Z,10.10
2019-03-18T15:17:03.654Z,10.12
2019-03-18T15:19:37.135Z,10.19
2019-03-18T15:22:10.752Z,9.98
2019-03-18T15:24:44.231Z,9.92
2019-03-18T15:27:17.754Z,9.97
2019-03-18T15:29:51.229Z,9.99
2019-03-18T15:32:24.895Z,10.03
2019-03-18T15:34:58.380Z,9.84
2019-03-18T15:37:32.459Z,9.79
2019-03-18T15:40:10.464Z,9.76
2019-03-18T15:42:44.175Z,9.75
2019-03-18T15:45:18.882Z,9.71
2019-03-18T15:47:52.368Z,9.66
2019-03-18T15:50:26.410Z,9.63
2019-03-18T15:52:59.935Z,9.50
2019-03-18T15:55:33.416Z,9.54
2019-03-18T15:58:06.916Z,9.58
2019-03-18T16:00:40.393Z,9.51
2019-03-18T16:03:14.015Z,9.52
2019-03-18T16:05:47.550Z,9.50
2019-03-18T16:08:22.467Z,9.57
2019-03-18T16:10:57.437Z,9.48
2019-03-18T16:13:30.976Z,9.47
2019-03-18T16:16:04.459Z,9.42
2019-03-18T16:18:38.066Z,9.38
2019-03-18T16:21:11.602Z,9.35
2019-03-18T16:23:45.129Z,9.28
2019-03-18T16:26:20.115Z,9.23
2019-03-18T16:28:53.943Z,9.12
2019-03-18T16:31:27.428Z,9.14
2019-03-18T16:34:00.974Z,9.05
2019-03-18T17:13:17.189Z,9.04
2019-03-18T17:15:50.744Z,9.04
2019-03-18T17:18:24.258Z,8.20
2019-03-18T17:20:57.757Z,8.23
2019-03-18T17:23:31.237Z,8.17
2019-03-18T17:26:04.902Z,8.17
2019-03-18T17:28:38.384Z,8.18
2019-03-18T17:31:11.958Z,8.08
2019-03-18T17:33:45.441Z,8.15
2019-03-18T17:36:19.079Z,8.14
2019-03-18T17:38:52.563Z,8.13
2019-03-18T17:41:26.166Z,8.14
2019-03-18T17:43:59.682Z,8.12
2019-03-18T17:46:33.207Z,8.09
2019-03-18T17:49:06.678Z,8.07
2019-03-18T17:51:40.230Z,8.08
2019-03-18T17:54:13.689Z,8.06
2019-03-18T17:56:47.162Z,8.11
2019-03-18T17:59:20.740Z,8.03
2019-03-18T18:01:54.328Z,8.03
2019-03-18T18:04:27.792Z,7.95
2019-03-18T18:07:02.848Z,7.88
2019-03-18T18:09:36.240Z,7.94
2019-03-18T18:12:09.798Z,7.97
2019-03-18T18:14:43.272Z,7.97
2019-03-18T18:17:16.866Z,7.94
2019-03-18T18:19:50.348Z,7.89
2019-03-18T18:22:23.883Z,7.82
2019-03-18T18:24:57.402Z,7.95
2019-03-18T18:27:31.116Z,7.93
2019-03-18T18:30:12.774Z,7.95
2019-03-18T18:32:46.440Z,7.88
2019-03-18T18:35:19.916Z,7.86
2019-03-18T18:37:53.519Z,7.82
2019-03-18T18:40:30.600Z,7.73
2019-03-18T18:43:04.149Z,7.72
2019-03-18T18:45:37.740Z,7.56
2019-03-18T18:48:11.530Z,7.60
2019-03-18T18:50:45.083Z,7.50
2019-03-18T18:53:26.328Z,7.40
2019-03-18T18:55:53.918Z,7.32
2019-03-18T18:58:27.484Z,7.19
2019-03-18T19:01:00.974Z,7.21
2019-03-18T19:03:34.499Z,7.18
2019-03-18T19:06:08.094Z,7.20
2019-03-18T19:08:41.795Z,7.23
2019-03-18T19:11:15.334Z,7.22
2019-03-18T19:13:48.880Z,7.09
2019-03-18T19:16:22.375Z,7.14
2019-03-18T19:18:55.880Z,7.02
2019-03-18T19:21:29.422Z,7.04
2019-03-18T19:24:02.983Z,7.01
2019-03-18T19:26:36.598Z,6.94
2019-03-18T19:29:10.924Z,6.84
2019-03-18T19:31:44.800Z,6.86
2019-03-18T19:34:18.580Z,6.75
2019-03-18T19:36:52.380Z,6.72
2019-03-18T19:39:26.177Z,6.77
2019-03-18T19:41:59.955Z,6.81
2019-03-18T19:44:33.939Z,6.73
2019-03-18T19:47:07.702Z,6.53
2019-03-18T19:49:41.447Z,6.65
2019-03-18T19:52:15.244Z,6.51
2019-03-18T19:54:49.256Z,6.57
2019-03-18T19:57:23.138Z,6.47
2019-03-18T19:59:56.931Z,6.48
2019-03-18T20:02:30.841Z,6.45
2019-03-18T20:05:14.538Z,6.43
2019-03-18T20:07:40.992Z,6.53
2019-03-18T20:10:16.986Z,6.38
2019-03-18T20:12:50.876Z,6.38
2019-03-18T20:15:24.651Z,6.31
2019-03-18T20:17:58.549Z,6.32
2019-03-18T20:20:34.249Z,6.28
2019-03-18T20:23:08.321Z,6.30
2019-03-18T20:25:42.228Z,6.34
2019-03-18T20:28:16.210Z,6.25
2019-03-18T20:30:50.221Z,6.23
2019-03-18T20:33:26.800Z,6.27
2019-03-18T20:36:00.677Z,6.22
2019-03-18T20:38:34.590Z,6.17
2019-03-18T20:41:09.961Z,6.13
2019-03-18T20:43:43.870Z,6.12
2019-03-18T20:46:17.686Z,6.06
2019-03-18T20:48:51.594Z,6.09
2019-03-18T20:51:25.383Z,6.17
2019-03-18T20:53:59.395Z,6.18
2019-03-18T20:56:33.300Z,6.20
2019-03-18T20:59:07.280Z,6.21
2019-03-18T21:01:41.188Z,6.24
2019-03-18T21:04:15.157Z,6.29
2019-03-18T21:06:49.073Z,6.24
2019-03-18T21:09:23.046Z,6.20
2019-03-18T21:11:56.912Z,6.22
2019-03-18T21:14:32.358Z,6.20
2019-03-18T21:17:06.278Z,6.23
2019-03-18T21:19:40.304Z,6.21
2019-03-18T21:22:14.108Z,6.30
2019-03-18T21:24:48.312Z,6.22
2019-03-18T21:27:22.102Z,6.16
2019-03-18T21:29:55.960Z,6.20
